TimeCEST,TemperatureF,Dew PointF,Humidity,Sea Level PressureIn,VisibilityMPH,Wind Direction,Wind SpeedMPH,Gust SpeedMPH,PrecipitationIn,Events,Conditions,WindDirDegrees,DateUTC
12:15 AM,71.6,62.6,73,30.04,-9999.0,SSE,1.2,-,N/A,,Clear,160,2013-08-17 22:15:00
12:45 AM,71.6,60.8,69,30.04,-9999.0,SSE,2.3,-,N/A,,Clear,160,2013-08-17 22:45:00
1:15 AM,71.6,59.0,64,30.04,-9999.0,SSE,3.5,-,N/A,,Clear,160,2013-08-17 23:15:00
1:45 AM,71.6,59.0,64,30.04,-9999.0,SE,3.5,-,N/A,,Clear,140,2013-08-17 23:45:00
2:15 AM,69.8,59.0,68,30.04,-9999.0,SE,2.3,-,N/A,,Clear,130,2013-08-18 00:15:00
2:45 AM,69.8,59.0,68,30.04,-9999.0,ESE,1.2,-,N/A,,Clear,120,2013-08-18 00:45:00
3:15 AM,69.8,59.0,68,30.04,-9999.0,ESE,1.2,-,N/A,,Clear,120,2013-08-18 01:15:00
3:45 AM,69.8,57.2,64,30.01,-9999.0,ESE,2.3,-,N/A,,Clear,120,2013-08-18 01:45:00
4:15 AM,69.8,57.2,64,30.01,-9999.0,ESE,2.3,-,N/A,,Clear,120,2013-08-18 02:15:00
4:45 AM,68.0,59.0,73,30.01,6.2,East,2.3,-,N/A,,Partly Cloudy,80,2013-08-18 02:45:00
5:15 AM,68.0,57.2,68,30.01,6.2,ENE,1.2,-,N/A,,Partly Cloudy,60,2013-08-18 03:15:00
5:45 AM,68.0,59.0,73,30.01,6.2,NNE,1.2,-,N/A,,Partly Cloudy,20,2013-08-18 03:45:00
6:15 AM,66.2,59.0,78,30.01,-9999.0,NE,2.3,-,N/A,,Clear,40,2013-08-18 04:15:00
6:45 AM,66.2,59.0,78,30.01,-9999.0,NNE,1.2,-,N/A,,Clear,30,2013-08-18 04:45:00
7:15 AM,68.0,60.8,78,30.01,-9999.0,NE,3.5,-,N/A,,Clear,50,2013-08-18 05:15:00
7:45 AM,69.8,62.6,78,30.04,-9999.0,NE,1.2,-,N/A,,Clear,40,2013-08-18 05:45:00
8:15 AM,71.6,62.6,73,30.04,-9999.0,North,2.3,-,N/A,,Clear,360,2013-08-18 06:15:00
8:45 AM,73.4,62.6,69,30.04,-9999.0,North,3.5,-,N/A,,Clear,10,2013-08-18 06:45:00
9:15 AM,77.0,62.6,61,30.04,-9999.0,NNE,3.5,-,N/A,,Clear,20,2013-08-18 07:15:00
9:45 AM,78.8,62.6,57,30.04,-9999.0,NNE,3.5,-,N/A,,Clear,20,2013-08-18 07:45:00
10:15 AM,82.4,64.4,54,30.06,-9999.0,North,2.3,-,N/A,,Clear,360,2013-08-18 08:15:00
10:45 AM,82.4,62.6,51,30.06,-9999.0,WNW,1.2,-,N/A,,Clear,290,2013-08-18 08:45:00
11:15 AM,84.2,60.8,45,30.06,-9999.0,WSW,3.5,-,N/A,,Clear,240,2013-08-18 09:15:00
11:45 AM,86.0,60.8,43,30.06,-9999.0,WSW,4.6,-,N/A,,Clear,250,2013-08-18 09:45:00
12:15 PM,87.8,60.8,40,30.06,6.2,NNW,3.5,-,N/A,,Partly Cloudy,330,2013-08-18 10:15:00
12:45 PM,87.8,59.0,38,30.04,6.2,WNW,5.8,-,N/A,,Partly Cloudy,290,2013-08-18 10:45:00
1:15 PM,89.6,60.8,38,30.04,6.2,WNW,8.1,-,N/A,,Partly Cloudy,290,2013-08-18 11:15:00
1:45 PM,89.6,62.6,40,30.04,6.2,WSW,5.8,-,N/A,,Partly Cloudy,240,2013-08-18 11:45:00
2:15 PM,89.6,60.8,38,30.04,6.2,West,8.1,-,N/A,,Partly Cloudy,270,2013-08-18 12:15:00
2:45 PM,89.6,60.8,38,30.04,6.2,West,9.2,-,N/A,,Partly Cloudy,270,2013-08-18 12:45:00
3:15 PM,89.6,60.8,38,30.04,6.2,West,8.1,-,N/A,,Partly Cloudy,270,2013-08-18 13:15:00
3:45 PM,87.8,62.6,43,30.04,6.2,West,9.2,-,N/A,,Partly Cloudy,270,2013-08-18 13:45:00
4:15 PM,87.8,62.6,43,30.01,6.2,West,8.1,-,N/A,,Partly Cloudy,260,2013-08-18 14:15:00
4:45 PM,87.8,64.4,46,30.01,6.2,West,9.2,-,N/A,,Partly Cloudy,270,2013-08-18 14:45:00
5:15 PM,87.8,64.4,46,30.01,6.2,West,8.1,-,N/A,,Partly Cloudy,270,2013-08-18 15:15:00
5:45 PM,86.0,66.2,51,30.01,6.2,West,10.4,-,N/A,,Partly Cloudy,280,2013-08-18 15:45:00
6:15 PM,86.0,66.2,51,30.01,6.2,West,8.1,-,N/A,,Partly Cloudy,270,2013-08-18 16:15:00
6:45 PM,84.2,66.2,55,30.01,-9999.0,West,6.9,-,N/A,,Clear,260,2013-08-18 16:45:00
7:15 PM,82.4,68.0,62,30.01,-9999.0,WSW,5.8,-,N/A,,Clear,250,2013-08-18 17:15:00
7:45 PM,82.4,69.8,66,30.01,-9999.0,WSW,5.8,-,N/A,,Clear,250,2013-08-18 17:45:00
8:15 PM,80.6,69.8,70,30.01,-9999.0,SW,3.5,-,N/A,,Clear,230,2013-08-18 18:15:00
8:45 PM,77.0,69.8,78,30.01,-9999.0,SW,3.5,-,N/A,,Clear,230,2013-08-18 18:45:00
9:15 PM,77.0,71.6,83,30.01,-9999.0,SW,2.3,-,N/A,,Clear,220,2013-08-18 19:15:00
9:45 PM,75.2,71.6,89,30.04,-9999.0,SW,3.5,-,N/A,,Clear,220,2013-08-18 19:45:00
10:15 PM,75.2,69.8,83,30.04,-9999.0,SW,3.5,-,N/A,,Clear,220,2013-08-18 20:15:00
10:45 PM,75.2,71.6,89,30.04,-9999.0,SSW,2.3,-,N/A,,Clear,200,2013-08-18 20:45:00
11:15 PM,75.2,71.6,89,30.04,-9999.0,South,2.3,-,N/A,,Clear,180,2013-08-18 21:15:00
11:45 PM,73.4,71.6,94,30.04,-9999.0,SSE,3.5,-,N/A,,Clear,160,2013-08-18 21:45:00